createdAt,value
2023-02-04T00:10:00.567Z,46
2023-02-04T00:19:59.607Z,46
2023-02-04T00:30:07.513Z,46
2023-02-04T00:40:15.370Z,46
2023-02-04T00:50:23.182Z,46
2023-02-04T01:00:31.319Z,46
2023-02-04T01:10:39.214Z,46
2023-02-04T01:20:47.108Z,47
2023-02-04T01:30:55.022Z,47
2023-02-04T01:41:02.787Z,47
2023-02-04T01:51:10.624Z,47
2023-02-04T02:01:18.498Z,47
2023-02-04T02:11:26.701Z,47
2023-02-04T02:21:34.553Z,47
2023-02-04T02:31:42.430Z,47
2023-02-04T02:41:50.210Z,47
2023-02-04T02:51:58.007Z,47
2023-02-04T03:02:05.957Z,47
2023-02-04T03:12:13.705Z,46
2023-02-04T03:22:21.645Z,46
2023-02-04T03:32:29.432Z,45
2023-02-04T03:42:37.271Z,44
2023-02-04T03:52:45.015Z,45
2023-02-04T04:02:52.879Z,44
2023-02-04T04:13:00.590Z,44
2023-02-04T04:23:08.432Z,44
2023-02-04T04:33:16.271Z,45
2023-02-04T04:43:24.259Z,44
2023-02-04T04:53:32.058Z,45
2023-02-04T05:03:40.026Z,46
2023-02-04T05:13:47.930Z,47
2023-02-04T05:23:55.871Z,49
2023-02-04T05:34:03.776Z,48
2023-02-04T05:44:11.574Z,49
2023-02-04T05:54:19.506Z,50
2023-02-04T06:04:27.661Z,50
2023-02-04T06:14:35.927Z,50
2023-02-04T06:24:47.213Z,49
2023-02-04T06:34:52.482Z,47
2023-02-04T06:45:00.374Z,46
2023-02-04T06:55:08.157Z,45
2023-02-04T07:05:16.090Z,45
2023-02-04T07:15:24.070Z,44
2023-02-04T07:25:32.451Z,44
2023-02-04T07:35:40.230Z,44
2023-02-04T07:45:49.241Z,44
2023-02-04T07:55:57.087Z,45
2023-02-04T08:06:06.689Z,44
2023-02-04T08:16:14.321Z,43
2023-02-04T08:26:23.650Z,42
2023-02-04T08:36:31.465Z,41
2023-02-04T08:46:39.353Z,41
2023-02-04T08:56:47.186Z,40
2023-02-04T09:06:55.096Z,39
2023-02-04T09:17:02.854Z,38
2023-02-04T09:27:10.705Z,38
2023-02-04T09:37:18.606Z,38
2023-02-04T09:47:26.615Z,37
2023-02-04T09:57:34.531Z,37
2023-02-04T10:07:42.603Z,36
2023-02-04T10:17:50.521Z,35
2023-02-04T10:27:58.404Z,34
2023-02-04T10:38:06.133Z,34
2023-02-04T10:48:13.991Z,33
2023-02-04T10:58:21.913Z,33
2023-02-04T11:08:29.757Z,32
2023-02-04T11:18:37.475Z,32
2023-02-04T11:28:45.428Z,31
2023-02-04T11:38:53.342Z,30
2023-02-04T11:49:02.134Z,30
2023-02-04T11:59:10.002Z,30
2023-02-04T12:09:17.786Z,30
2023-02-04T12:19:27.543Z,29
2023-02-04T12:29:33.086Z,29
2023-02-04T12:39:40.985Z,29
2023-02-04T12:49:48.817Z,28
2023-02-04T12:59:56.695Z,27
2023-02-04T13:09:58.259Z,27
2023-02-04T13:20:07.662Z,27
2023-02-04T13:30:08.269Z,27
2023-02-04T13:40:16.873Z,26
2023-02-04T13:50:24.805Z,26
2023-02-04T14:00:33.945Z,26
2023-02-04T14:10:42.595Z,25
2023-02-04T14:20:50.355Z,26
2023-02-04T14:30:58.323Z,25
2023-02-04T14:41:06.247Z,25
2023-02-04T14:51:14.218Z,25
2023-02-04T15:01:22.143Z,25
2023-02-04T15:11:29.998Z,25
2023-02-04T15:21:38.040Z,25
2023-02-04T15:31:50.794Z,25
2023-02-04T15:41:59.976Z,25
2023-02-04T15:52:04.778Z,24
2023-02-04T16:02:03.672Z,24
2023-02-04T16:12:05.948Z,25
2023-02-04T16:22:04.028Z,25
2023-02-04T16:32:06.667Z,25
2023-02-04T16:42:09.369Z,25
2023-02-04T16:52:14.538Z,25
2023-02-04T17:02:14.065Z,25
2023-02-04T17:12:22.281Z,25
2023-02-04T17:22:31.338Z,25
2023-02-04T17:32:34.640Z,26
2023-02-04T17:42:31.375Z,26
2023-02-04T17:52:43.186Z,26
2023-02-04T18:02:43.646Z,27
2023-02-04T18:12:53.298Z,27
2023-02-04T18:23:01.365Z,28
2023-02-04T18:33:11.578Z,28
2023-02-04T18:43:09.538Z,29
2023-02-04T18:53:16.457Z,30
2023-02-04T19:03:24.584Z,29
2023-02-04T19:13:32.749Z,29
2023-02-04T19:23:40.696Z,31
2023-02-04T19:33:46.028Z,30
2023-02-04T19:43:50.337Z,30
2023-02-04T19:53:54.042Z,30
2023-02-04T20:03:53.344Z,30
2023-02-04T20:14:00.098Z,31
2023-02-04T20:23:58.150Z,32
2023-02-04T20:34:05.007Z,32
2023-02-04T20:44:11.963Z,33
2023-02-04T20:54:16.187Z,34
2023-02-04T21:04:26.966Z,34
2023-02-04T21:14:25.345Z,35
2023-02-04T21:24:35.137Z,35
2023-02-04T21:44:46.371Z,37
2023-02-04T21:54:45.349Z,37
2023-02-04T22:04:53.314Z,36
2023-02-04T22:15:02.772Z,37
2023-02-04T22:25:11.824Z,38
2023-02-04T22:35:13.427Z,38
2023-02-04T22:45:23.271Z,38
2023-02-04T22:55:21.802Z,38
2023-02-04T23:05:30.009Z,39
2023-02-04T23:15:37.500Z,39
2023-02-04T23:25:45.429Z,39
2023-02-04T23:35:53.306Z,39
2023-02-04T23:46:01.242Z,40
2023-02-04T23:56:10.041Z,40
